Weather at Urbe Airport

Public forecast

Using degrees Celsius for public forecast. Weather courtesy of forecast.io.

Current aviation weather report (METAR) for Urbe Airport

Retrieved 2020/10/25 15:50 UTC (56 minutes ago):

LIRU 251550Z VRB03KT CAVOK 18/14 Q1016

Aviation forecast (TAF) for Urbe Airport

Forecast is more than 12 hours old.

Retrieved 2013/11/03 18:54 UTC (7 years ago):

TAF TAF LIRU 032244Z 0318/0406 CNL